sensor_id;sensor_type;location;lat;lon;timestamp;pressure;altitude;pressure_sealevel;temperature;humidity
77110;BME280;66062;52.464;16.922;2023-02-24T00:01:33;99818.38;;;7.23;100.00
77110;BME280;66062;52.464;16.922;2023-02-24T00:04:03;99818.09;;;7.16;100.00
77110;BME280;66062;52.464;16.922;2023-02-24T00:06:33;99823.25;;;7.18;100.00
77110;BME280;66062;52.464;16.922;2023-02-24T00:09:13;99819.09;;;7.15;100.00
77110;BME280;66062;52.464;16.922;2023-02-24T00:12:03;99815.72;;;7.13;100.00
77110;BME280;66062;52.464;16.922;2023-02-24T00:14:32;99821.44;;;7.09;100.00
77110;BME280;66062;52.464;16.922;2023-02-24T00:16:58;99813.38;;;7.20;100.00
77110;BME280;66062;52.464;16.922;2023-02-24T00:19:26;99804.56;;;7.19;100.00
77110;BME280;66062;52.464;16.922;2023-02-24T00:21:52;99796.31;;;7.13;100.00
77110;BME280;66062;52.464;16.922;2023-02-24T00:24:19;99806.38;;;7.09;100.00
77110;BME280;66062;52.464;16.922;2023-02-24T00:26:45;99789.59;;;7.09;100.00
77110;BME280;66062;52.464;16.922;2023-02-24T00:29:12;99787.25;;;7.06;100.00
77110;BME280;66062;52.464;16.922;2023-02-24T00:31:38;99778.56;;;7.13;100.00
77110;BME280;66062;52.464;16.922;2023-02-24T00:34:09;99774.41;;;7.11;100.00
77110;BME280;66062;52.464;16.922;2023-02-24T00:36:36;99770.31;;;7.07;100.00
77110;BME280;66062;52.464;16.922;2023-02-24T00:39:06;99772.72;;;7.10;100.00
77110;BME280;66062;52.464;16.922;2023-02-24T00:41:38;99772.97;;;7.07;100.00
77110;BME280;66062;52.464;16.922;2023-02-24T00:44:06;99773.97;;;7.06;100.00
77110;BME280;66062;52.464;16.922;2023-02-24T00:46:36;99774.53;;;7.09;100.00
77110;BME280;66062;52.464;16.922;2023-02-24T00:49:04;99766.69;;;7.08;100.00
77110;BME280;66062;52.464;16.922;2023-02-24T00:51:36;99764.75;;;7.00;100.00
77110;BME280;66062;52.464;16.922;2023-02-24T00:54:02;99761.50;;;6.97;100.00
77110;BME280;66062;52.464;16.922;2023-02-24T00:56:28;99755.22;;;6.98;100.00
77110;BME280;66062;52.464;16.922;2023-02-24T00:58:55;99756.63;;;7.02;100.00
77110;BME280;66062;52.464;16.922;2023-02-24T01:01:23;99748.00;;;7.00;100.00
77110;BME280;66062;52.464;16.922;2023-02-24T01:03:50;99755.94;;;7.00;100.00
77110;BME280;66062;52.464;16.922;2023-02-24T01:06:21;99747.03;;;7.01;100.00
77110;BME280;66062;52.464;16.922;2023-02-24T01:08:49;99744.19;;;6.93;100.00
77110;BME280;66062;52.464;16.922;2023-02-24T01:11:15;99751.31;;;6.92;100.00
77110;BME280;66062;52.464;16.922;2023-02-24T01:13:59;99756.91;;;6.99;100.00
77110;BME280;66062;52.464;16.922;2023-02-24T01:16:28;99747.16;;;6.99;100.00
77110;BME280;66062;52.464;16.922;2023-02-24T01:18:53;99746.16;;;6.91;100.00
77110;BME280;66062;52.464;16.922;2023-02-24T01:21:19;99735.81;;;6.87;100.00
77110;BME280;66062;52.464;16.922;2023-02-24T01:23:49;99735.28;;;6.94;100.00
77110;BME280;66062;52.464;16.922;2023-02-24T01:26:15;99726.75;;;6.90;100.00
77110;BME280;66062;52.464;16.922;2023-02-24T01:28:41;99730.94;;;6.93;100.00
77110;BME280;66062;52.464;16.922;2023-02-24T01:31:06;99723.69;;;6.95;100.00
77110;BME280;66062;52.464;16.922;2023-02-24T01:33:33;99719.50;;;6.92;100.00
77110;BME280;66062;52.464;16.922;2023-02-24T01:36:09;99719.66;;;6.91;100.00
77110;BME280;66062;52.464;16.922;2023-02-24T01:38:35;99710.97;;;6.88;100.00
77110;BME280;66062;52.464;16.922;2023-02-24T01:41:01;99712.13;;;6.96;100.00
77110;BME280;66062;52.464;16.922;2023-02-24T01:43:30;99713.09;;;6.95;100.00
77110;BME280;66062;52.464;16.922;2023-02-24T01:45:55;99702.91;;;7.00;100.00
77110;BME280;66062;52.464;16.922;2023-02-24T01:48:22;99698.00;;;7.05;100.00
77110;BME280;66062;52.464;16.922;2023-02-24T01:50:49;99694.38;;;7.06;100.00
77110;BME280;66062;52.464;16.922;2023-02-24T01:53:15;99696.19;;;6.96;100.00
77110;BME280;66062;52.464;16.922;2023-02-24T01:55:43;99706.53;;;6.89;100.00
77110;BME280;66062;52.464;16.922;2023-02-24T01:58:29;99699.66;;;6.86;100.00
77110;BME280;66062;52.464;16.922;2023-02-24T02:00:56;99695.78;;;6.91;100.00
77110;BME280;66062;52.464;16.922;2023-02-24T02:03:29;99695.50;;;6.94;100.00
77110;BME280;66062;52.464;16.922;2023-02-24T02:06:07;99692.00;;;6.93;100.00
77110;BME280;66062;52.464;16.922;2023-02-24T02:08:35;99697.16;;;6.85;100.00
77110;BME280;66062;52.464;16.922;2023-02-24T02:11:05;99691.16;;;6.83;100.00
77110;BME280;66062;52.464;16.922;2023-02-24T02:13:32;99696.31;;;6.84;100.00
77110;BME280;66062;52.464;16.922;2023-02-24T02:21:43;99683.47;;;6.70;100.00
77110;BME280;66062;52.464;16.922;2023-02-24T02:27:18;99676.50;;;6.69;100.00
77110;BME280;66062;52.464;16.922;2023-02-24T02:29:49;99672.44;;;6.65;100.00
77110;BME280;66062;52.464;16.922;2023-02-24T02:35:06;99671.44;;;6.57;100.00
77110;BME280;66062;52.464;16.922;2023-02-24T02:37:38;99665.59;;;6.53;100.00
77110;BME280;66062;52.464;16.922;2023-02-24T02:40:12;99671.59;;;6.55;100.00
77110;BME280;66062;52.464;16.922;2023-02-24T02:43:05;99659.31;;;6.54;100.00
77110;BME280;66062;52.464;16.922;2023-02-24T02:48:30;99664.03;;;6.51;100.00
77110;BME280;66062;52.464;16.922;2023-02-24T02:51:09;99666.69;;;6.51;100.00
77110;BME280;66062;52.464;16.922;2023-02-24T02:56:22;99656.91;;;6.51;100.00
77110;BME280;66062;52.464;16.922;2023-02-24T02:58:51;99651.91;;;6.48;100.00
77110;BME280;66062;52.464;16.922;2023-02-24T03:01:20;99656.25;;;6.49;100.00
77110;BME280;66062;52.464;16.922;2023-02-24T03:03:52;99642.41;;;6.45;100.00
77110;BME280;66062;52.464;16.922;2023-02-24T03:06:27;99653.59;;;6.49;100.00
77110;BME280;66062;52.464;16.922;2023-02-24T03:11:26;99648.28;;;6.49;100.00
77110;BME280;66062;52.464;16.922;2023-02-24T03:13:55;99639.63;;;6.47;100.00
77110;BME280;66062;52.464;16.922;2023-02-24T03:16:23;99640.59;;;6.36;100.00
77110;BME280;66062;52.464;16.922;2023-02-24T03:18:54;99644.78;;;6.39;100.00
77110;BME280;66062;52.464;16.922;2023-02-24T03:21:40;99644.06;;;6.37;100.00
77110;BME280;66062;52.464;16.922;2023-02-24T03:24:09;99641.13;;;6.40;100.00
77110;BME280;66062;52.464;16.922;2023-02-24T03:26:44;99634.31;;;6.37;100.00
77110;BME280;66062;52.464;16.922;2023-02-24T03:29:30;99638.78;;;6.37;100.00
77110;BME280;66062;52.464;16.922;2023-02-24T03:32:02;99636.56;;;6.42;100.00
77110;BME280;66062;52.464;16.922;2023-02-24T03:37:07;99623.59;;;6.39;100.00
77110;BME280;66062;52.464;16.922;2023-02-24T03:39:32;99620.63;;;6.32;100.00
77110;BME280;66062;52.464;16.922;2023-02-24T03:42:08;99615.63;;;6.39;100.00
77110;BME280;66062;52.464;16.922;2023-02-24T03:44:36;99619.50;;;6.35;100.00
77110;BME280;66062;52.464;16.922;2023-02-24T03:47:02;99622.44;;;6.32;100.00
77110;BME280;66062;52.464;16.922;2023-02-24T03:49:27;99622.75;;;6.38;100.00
77110;BME280;66062;52.464;16.922;2023-02-24T04:00:25;99608.88;;;6.16;100.00
77110;BME280;66062;52.464;16.922;2023-02-24T04:08:38;99600.25;;;6.14;100.00
77110;BME280;66062;52.464;16.922;2023-02-24T04:11:19;99603.16;;;6.11;100.00
77110;BME280;66062;52.464;16.922;2023-02-24T04:13:50;99600.09;;;6.06;100.00
77110;BME280;66062;52.464;16.922;2023-02-24T04:16:23;99587.69;;;6.06;100.00
77110;BME280;66062;52.464;16.922;2023-02-24T04:18:59;99591.31;;;6.05;100.00
77110;BME280;66062;52.464;16.922;2023-02-24T04:21:28;99590.03;;;5.99;100.00
77110;BME280;66062;52.464;16.922;2023-02-24T04:23:58;99586.16;;;6.04;100.00
77110;BME280;66062;52.464;16.922;2023-02-24T04:26:26;99578.78;;;6.07;100.00
77110;BME280;66062;52.464;16.922;2023-02-24T04:28:53;99576.25;;;6.06;100.00
77110;BME280;66062;52.464;16.922;2023-02-24T04:31:21;99576.53;;;6.03;100.00
77110;BME280;66062;52.464;16.922;2023-02-24T04:33:49;99575.41;;;6.05;100.00
77110;BME280;66062;52.464;16.922;2023-02-24T04:36:19;99569.03;;;6.08;100.00
77110;BME280;66062;52.464;16.922;2023-02-24T04:38:45;99574.00;;;6.01;100.00
77110;BME280;66062;52.464;16.922;2023-02-24T04:41:17;99564.81;;;5.95;100.00
77110;BME280;66062;52.464;16.922;2023-02-24T04:43:49;99567.44;;;5.95;100.00
77110;BME280;66062;52.464;16.922;2023-02-24T04:46:18;99561.06;;;5.98;100.00
77110;BME280;66062;52.464;16.922;2023-02-24T04:48:43;99566.75;;;5.93;100.00
77110;BME280;66062;52.464;16.922;2023-02-24T04:51:09;99561.19;;;5.96;100.00
77110;BME280;66062;52.464;16.922;2023-02-24T04:53:35;99558.97;;;6.01;100.00
77110;BME280;66062;52.464;16.922;2023-02-24T04:56:03;99558.25;;;5.99;100.00
77110;BME280;66062;52.464;16.922;2023-02-24T04:58:34;99557.81;;;5.94;100.00
77110;BME280;66062;52.464;16.922;2023-02-24T05:01:07;99555.88;;;5.96;100.00
77110;BME280;66062;52.464;16.922;2023-02-24T05:03:34;99547.09;;;5.96;100.00
77110;BME280;66062;52.464;16.922;2023-02-24T05:06:00;99541.66;;;5.88;100.00
77110;BME280;66062;52.464;16.922;2023-02-24T05:08:27;99543.63;;;5.95;100.00
77110;BME280;66062;52.464;16.922;2023-02-24T05:10:53;99539.72;;;5.99;100.00
77110;BME280;66062;52.464;16.922;2023-02-24T05:13:22;99543.63;;;5.95;100.00
77110;BME280;66062;52.464;16.922;2023-02-24T05:15:53;99535.66;;;5.95;100.00
77110;BME280;66062;52.464;16.922;2023-02-24T05:18:22;99536.38;;;5.97;100.00
77110;BME280;66062;52.464;16.922;2023-02-24T05:20:53;99534.78;;;5.85;100.00
77110;BME280;66062;52.464;16.922;2023-02-24T05:23:40;99519.66;;;5.97;100.00
77110;BME280;66062;52.464;16.922;2023-02-24T05:26:09;99527.72;;;5.95;100.00
77110;BME280;66062;52.464;16.922;2023-02-24T05:28:39;99526.03;;;5.94;100.00
77110;BME280;66062;52.464;16.922;2023-02-24T05:33:34;99521.16;;;5.90;100.00
77110;BME280;66062;52.464;16.922;2023-02-24T05:36:03;99525.06;;;5.95;100.00
77110;BME280;66062;52.464;16.922;2023-02-24T05:38:31;99516.59;;;6.01;100.00
77110;BME280;66062;52.464;16.922;2023-02-24T05:41:03;99514.38;;;6.07;100.00
77110;BME280;66062;52.464;16.922;2023-02-24T05:43:30;99512.81;;;5.94;100.00
77110;BME280;66062;52.464;16.922;2023-02-24T05:45:59;99517.13;;;5.95;100.00
77110;BME280;66062;52.464;16.922;2023-02-24T05:48:27;99507.91;;;5.90;100.00
77110;BME280;66062;52.464;16.922;2023-02-24T05:50:53;99509.59;;;5.91;100.00
77110;BME280;66062;52.464;16.922;2023-02-24T05:53:20;99503.00;;;5.85;100.00
77110;BME280;66062;52.464;16.922;2023-02-24T05:55:47;99506.06;;;5.81;100.00
77110;BME280;66062;52.464;16.922;2023-02-24T05:58:13;99502.03;;;5.86;100.00
77110;BME280;66062;52.464;16.922;2023-02-24T06:00:40;99505.44;;;5.88;100.00
77110;BME280;66062;52.464;16.922;2023-02-24T06:03:10;99501.78;;;5.89;100.00
77110;BME280;66062;52.464;16.922;2023-02-24T06:05:51;99495.94;;;5.95;100.00
77110;BME280;66062;52.464;16.922;2023-02-24T06:08:16;99493.38;;;5.84;100.00
77110;BME280;66062;52.464;16.922;2023-02-24T06:10:43;99487.03;;;5.87;100.00
77110;BME280;66062;52.464;16.922;2023-02-24T06:13:11;99492.59;;;5.84;99.93
77110;BME280;66062;52.464;16.922;2023-02-24T06:15:36;99490.06;;;5.82;99.54
77110;BME280;66062;52.464;16.922;2023-02-24T06:18:02;99487.00;;;5.77;99.66
77110;BME280;66062;52.464;16.922;2023-02-24T06:20:28;99488.38;;;5.81;99.58
77110;BME280;66062;52.464;16.922;2023-02-24T06:22:57;99486.16;;;5.77;99.42
77110;BME280;66062;52.464;16.922;2023-02-24T06:25:24;99485.03;;;5.79;99.26
77110;BME280;66062;52.464;16.922;2023-02-24T06:27:51;99483.78;;;5.74;100.00
77110;BME280;66062;52.464;16.922;2023-02-24T06:30:19;99486.16;;;5.77;98.68
77110;BME280;66062;52.464;16.922;2023-02-24T06:32:46;99493.53;;;5.73;98.92
77110;BME280;66062;52.464;16.922;2023-02-24T06:35:12;99491.16;;;5.80;99.00
77110;BME280;66062;52.464;16.922;2023-02-24T06:37:37;99484.06;;;5.80;99.13
77110;BME280;66062;52.464;16.922;2023-02-24T06:40:04;99485.31;;;5.76;98.47
77110;BME280;66062;52.464;16.922;2023-02-24T06:42:50;99509.00;;;5.68;97.03
77110;BME280;66062;52.464;16.922;2023-02-24T06:45:19;99505.59;;;5.47;95.70
77110;BME280;66062;52.464;16.922;2023-02-24T06:47:45;99509.13;;;5.27;96.74
77110;BME280;66062;52.464;16.922;2023-02-24T06:50:14;99505.69;;;5.05;97.57
77110;BME280;66062;52.464;16.922;2023-02-24T06:52:40;99508.97;;;4.98;97.58
77110;BME280;66062;52.464;16.922;2023-02-24T06:55:08;99515.56;;;4.83;98.51
77110;BME280;66062;52.464;16.922;2023-02-24T06:57:50;99520.56;;;4.76;100.00
77110;BME280;66062;52.464;16.922;2023-02-24T07:00:18;99515.00;;;4.58;99.97
77110;BME280;66062;52.464;16.922;2023-02-24T07:02:49;99513.41;;;4.46;100.00
77110;BME280;66062;52.464;16.922;2023-02-24T07:05:14;99517.09;;;4.55;100.00
77110;BME280;66062;52.464;16.922;2023-02-24T07:07:41;99525.34;;;4.41;100.00
77110;BME280;66062;52.464;16.922;2023-02-24T07:10:11;99525.56;;;4.38;100.00
77110;BME280;66062;52.464;16.922;2023-02-24T07:12:37;99519.59;;;4.36;100.00
77110;BME280;66062;52.464;16.922;2023-02-24T07:15:03;99517.72;;;4.26;100.00
77110;BME280;66062;52.464;16.922;2023-02-24T07:17:29;99523.50;;;4.20;100.00
77110;BME280;66062;52.464;16.922;2023-02-24T07:19:54;99521.38;;;4.14;99.30
77110;BME280;66062;52.464;16.922;2023-02-24T07:22:21;99522.09;;;4.16;97.83
77110;BME280;66062;52.464;16.922;2023-02-24T07:24:49;99521.16;;;4.06;98.02
77110;BME280;66062;52.464;16.922;2023-02-24T07:27:15;99523.09;;;3.93;98.49
77110;BME280;66062;52.464;16.922;2023-02-24T07:29:48;99526.84;;;3.91;98.11
77110;BME280;66062;52.464;16.922;2023-02-24T07:32:15;99519.16;;;3.87;97.80
77110;BME280;66062;52.464;16.922;2023-02-24T07:34:42;99520.88;;;3.77;97.96
77110;BME280;66062;52.464;16.922;2023-02-24T07:37:09;99504.56;;;3.72;98.67
77110;BME280;66062;52.464;16.922;2023-02-24T07:39:35;99520.88;;;3.66;99.29
77110;BME280;66062;52.464;16.922;2023-02-24T07:42:02;99514.31;;;3.61;99.58
77110;BME280;66062;52.464;16.922;2023-02-24T07:44:27;99515.00;;;3.74;99.32
77110;BME280;66062;52.464;16.922;2023-02-24T07:46:54;99518.97;;;3.68;99.38
77110;BME280;66062;52.464;16.922;2023-02-24T07:49:23;99509.03;;;3.61;100.00
77110;BME280;66062;52.464;16.922;2023-02-24T07:51:51;99505.22;;;3.54;99.95
77110;BME280;66062;52.464;16.922;2023-02-24T07:54:18;99504.47;;;3.63;100.00
77110;BME280;66062;52.464;16.922;2023-02-24T07:56:47;99505.91;;;3.56;99.85
77110;BME280;66062;52.464;16.922;2023-02-24T07:59:21;99503.53;;;3.64;100.00
77110;BME280;66062;52.464;16.922;2023-02-24T08:01:46;99513.69;;;3.68;99.62
77110;BME280;66062;52.464;16.922;2023-02-24T08:04:19;99495.97;;;3.59;98.66
77110;BME280;66062;52.464;16.922;2023-02-24T08:06:48;99490.44;;;3.62;98.30
77110;BME280;66062;52.464;16.922;2023-02-24T08:09:24;99495.38;;;3.56;98.86
77110;BME280;66062;52.464;16.922;2023-02-24T08:12:12;99487.72;;;3.53;98.67
77110;BME280;66062;52.464;16.922;2023-02-24T08:14:42;99485.06;;;3.64;98.56
77110;BME280;66062;52.464;16.922;2023-02-24T08:17:16;99473.91;;;3.92;97.14
77110;BME280;66062;52.464;16.922;2023-02-24T08:19:46;99471.00;;;4.06;91.87
77110;BME280;66062;52.464;16.922;2023-02-24T08:22:11;99461.03;;;4.30;89.65
77110;BME280;66062;52.464;16.922;2023-02-24T08:24:55;99464.69;;;4.60;88.59
77110;BME280;66062;52.464;16.922;2023-02-24T08:27:26;99461.53;;;4.66;81.39
77110;BME280;66062;52.464;16.922;2023-02-24T08:29:55;99460.22;;;5.80;79.07
77110;BME280;66062;52.464;16.922;2023-02-24T08:32:41;99464.31;;;7.53;70.25
77110;BME280;66062;52.464;16.922;2023-02-24T08:35:18;99457.75;;;8.10;65.59
77110;BME280;66062;52.464;16.922;2023-02-24T08:37:54;99453.84;;;6.31;71.42
77110;BME280;66062;52.464;16.922;2023-02-24T08:40:30;99458.91;;;5.46;75.83
77110;BME280;66062;52.464;16.922;2023-02-24T08:45:52;99457.34;;;4.43;79.57
77110;BME280;66062;52.464;16.922;2023-02-24T08:48:23;99459.19;;;3.90;81.58
77110;BME280;66062;52.464;16.922;2023-02-24T08:53:40;99448.34;;;3.61;83.11
77110;BME280;66062;52.464;16.922;2023-02-24T08:56:08;99454.16;;;3.43;83.84
77110;BME280;66062;52.464;16.922;2023-02-24T08:58:45;99454.09;;;3.66;84.42
77110;BME280;66062;52.464;16.922;2023-02-24T09:01:20;99443.63;;;3.43;84.32
77110;BME280;66062;52.464;16.922;2023-02-24T09:03:52;99441.13;;;3.31;83.83
77110;BME280;66062;52.464;16.922;2023-02-24T09:06:22;99444.38;;;3.34;84.02
77110;BME280;66062;52.464;16.922;2023-02-24T09:08:54;99445.78;;;3.38;84.55
77110;BME280;66062;52.464;16.922;2023-02-24T09:11:40;99428.34;;;3.58;82.68
77110;BME280;66062;52.464;16.922;2023-02-24T09:14:13;99425.50;;;3.82;81.19
77110;BME280;66062;52.464;16.922;2023-02-24T09:16:42;99427.91;;;3.85;80.63
77110;BME280;66062;52.464;16.922;2023-02-24T09:19:42;99421.34;;;4.00;80.25
77110;BME280;66062;52.464;16.922;2023-02-24T09:22:11;99425.59;;;4.12;78.79
77110;BME280;66062;52.464;16.922;2023-02-24T09:24:40;99423.50;;;4.06;78.48
77110;BME280;66062;52.464;16.922;2023-02-24T09:27:06;99421.66;;;4.27;78.30
77110;BME280;66062;52.464;16.922;2023-02-24T09:29:31;99411.88;;;4.18;77.25
77110;BME280;66062;52.464;16.922;2023-02-24T09:32:14;99406.66;;;4.28;76.77
77110;BME280;66062;52.464;16.922;2023-02-24T09:34:41;99411.81;;;4.29;75.29
77110;BME280;66062;52.464;16.922;2023-02-24T09:37:11;99402.88;;;4.00;74.38
77110;BME280;66062;52.464;16.922;2023-02-24T09:39:50;99404.59;;;3.90;76.54
77110;BME280;66062;52.464;16.922;2023-02-24T09:42:26;99413.13;;;4.14;75.22
77110;BME280;66062;52.464;16.922;2023-02-24T09:45:04;99404.75;;;4.30;72.78
77110;BME280;66062;52.464;16.922;2023-02-24T09:47:44;99406.59;;;4.39;73.28
77110;BME280;66062;52.464;16.922;2023-02-24T09:52:46;99400.34;;;4.19;73.89
77110;BME280;66062;52.464;16.922;2023-02-24T09:55:34;99395.19;;;4.18;73.92
77110;BME280;66062;52.464;16.922;2023-02-24T10:04:14;99385.97;;;4.33;72.44
77110;BME280;66062;52.464;16.922;2023-02-24T10:12:01;99372.78;;;4.63;70.64
77110;BME280;66062;52.464;16.922;2023-02-24T10:14:37;99365.13;;;4.30;71.09
77110;BME280;66062;52.464;16.922;2023-02-24T10:17:30;99359.88;;;4.40;71.06
77110;BME280;66062;52.464;16.922;2023-02-24T10:20:14;99359.75;;;4.11;71.37
77110;BME280;66062;52.464;16.922;2023-02-24T10:23:00;99346.03;;;3.75;71.97
77110;BME280;66062;52.464;16.922;2023-02-24T10:25:47;99354.25;;;3.82;71.99
77110;BME280;66062;52.464;16.922;2023-02-24T10:31:13;99356.59;;;3.75;72.12
77110;BME280;66062;52.464;16.922;2023-02-24T10:34:01;99350.16;;;3.89;71.75
77110;BME280;66062;52.464;16.922;2023-02-24T10:36:30;99350.47;;;3.75;71.25
77110;BME280;66062;52.464;16.922;2023-02-24T10:39:13;99348.00;;;3.62;72.24
77110;BME280;66062;52.464;16.922;2023-02-24T10:42:00;99340.88;;;3.74;71.55
77110;BME280;66062;52.464;16.922;2023-02-24T10:44:47;99335.47;;;3.75;71.19
77110;BME280;66062;52.464;16.922;2023-02-24T10:47:22;99331.47;;;3.81;71.85
77110;BME280;66062;52.464;16.922;2023-02-24T10:49:57;99329.81;;;3.80;71.15
77110;BME280;66062;52.464;16.922;2023-02-24T10:52:28;99327.47;;;3.86;71.13
77110;BME280;66062;52.464;16.922;2023-02-24T10:55:04;99323.97;;;4.07;70.08
77110;BME280;66062;52.464;16.922;2023-02-24T10:57:43;99314.38;;;4.26;70.27
77110;BME280;66062;52.464;16.922;2023-02-24T11:00:18;99310.41;;;4.42;68.91
77110;BME280;66062;52.464;16.922;2023-02-24T11:02:55;99296.59;;;4.68;68.62
77110;BME280;66062;52.464;16.922;2023-02-24T11:05:37;99291.88;;;4.72;67.91
77110;BME280;66062;52.464;16.922;2023-02-24T11:08:15;99286.66;;;5.01;65.75
77110;BME280;66062;52.464;16.922;2023-02-24T11:10:59;99280.69;;;5.28;65.63
77110;BME280;66062;52.464;16.922;2023-02-24T11:13:31;99274.41;;;5.67;63.32
77110;BME280;66062;52.464;16.922;2023-02-24T11:16:15;99263.06;;;5.84;62.58
77110;BME280;66062;52.464;16.922;2023-02-24T11:19:15;99259.59;;;5.74;62.64
77110;BME280;66062;52.464;16.922;2023-02-24T11:21:41;99259.09;;;5.42;64.28
77110;BME280;66062;52.464;16.922;2023-02-24T11:24:15;99246.44;;;5.36;64.99
77110;BME280;66062;52.464;16.922;2023-02-24T11:26:42;99236.38;;;5.68;65.06
77110;BME280;66062;52.464;16.922;2023-02-24T11:39:49;99208.13;;;6.60;62.36
77110;BME280;66062;52.464;16.922;2023-02-24T11:42:30;99206.72;;;6.38;61.55
77110;BME280;66062;52.464;16.922;2023-02-24T11:45:24;99202.25;;;6.12;61.92
77110;BME280;66062;52.464;16.922;2023-02-24T11:47:54;99204.66;;;5.95;63.21
77110;BME280;66062;52.464;16.922;2023-02-24T11:50:27;99193.81;;;6.26;62.27
77110;BME280;66062;52.464;16.922;2023-02-24T11:52:57;99188.81;;;5.76;63.35
77110;BME280;66062;52.464;16.922;2023-02-24T11:57:53;99187.53;;;6.72;61.76
77110;BME280;66062;52.464;16.922;2023-02-24T12:00:25;99183.38;;;6.69;61.05
77110;BME280;66062;52.464;16.922;2023-02-24T12:03:21;99177.47;;;6.30;61.20
77110;BME280;66062;52.464;16.922;2023-02-24T12:05:49;99169.28;;;5.96;63.34
77110;BME280;66062;52.464;16.922;2023-02-24T12:08:30;99170.50;;;6.02;63.22
77110;BME280;66062;52.464;16.922;2023-02-24T12:11:02;99169.75;;;6.37;61.39
77110;BME280;66062;52.464;16.922;2023-02-24T12:13:40;99161.53;;;6.58;61.72
77110;BME280;66062;52.464;16.922;2023-02-24T12:16:16;99155.47;;;8.04;55.39
77110;BME280;66062;52.464;16.922;2023-02-24T12:18:57;99146.72;;;7.52;55.89
77110;BME280;66062;52.464;16.922;2023-02-24T12:21:33;99151.06;;;7.53;56.85
77110;BME280;66062;52.464;16.922;2023-02-24T12:24:00;99149.03;;;7.21;57.14
77110;BME280;66062;52.464;16.922;2023-02-24T12:26:43;99147.94;;;6.70;58.25
77110;BME280;66062;52.464;16.922;2023-02-24T12:32:07;99143.19;;;6.01;60.21
77110;BME280;66062;52.464;16.922;2023-02-24T12:45:18;99107.97;;;5.91;60.75
77110;BME280;66062;52.464;16.922;2023-02-24T12:48:02;99105.59;;;6.16;59.95
77110;BME280;66062;52.464;16.922;2023-02-24T12:50:53;99107.06;;;6.45;59.39
77110;BME280;66062;52.464;16.922;2023-02-24T12:56:22;99099.22;;;5.81;60.64
77110;BME280;66062;52.464;16.922;2023-02-24T12:58:51;99099.19;;;5.54;61.76
77110;BME280;66062;52.464;16.922;2023-02-24T13:01:35;99106.06;;;5.47;62.53
77110;BME280;66062;52.464;16.922;2023-02-24T13:15:24;99070.75;;;5.66;61.84
77110;BME280;66062;52.464;16.922;2023-02-24T13:17:51;99065.75;;;5.63;61.16
77110;BME280;66062;52.464;16.922;2023-02-24T13:22:51;99058.91;;;5.60;61.71
77110;BME280;66062;52.464;16.922;2023-02-24T13:25:48;99058.31;;;5.48;61.47
77110;BME280;66062;52.464;16.922;2023-02-24T13:28:24;99047.63;;;5.31;61.10
77110;BME280;66062;52.464;16.922;2023-02-24T13:31:02;99055.00;;;5.37;61.30
77110;BME280;66062;52.464;16.922;2023-02-24T13:33:33;99052.06;;;5.40;61.53
77110;BME280;66062;52.464;16.922;2023-02-24T13:38:48;99032.47;;;5.33;59.61
77110;BME280;66062;52.464;16.922;2023-02-24T13:44:03;99019.13;;;5.79;59.53
77110;BME280;66062;52.464;16.922;2023-02-24T13:47:15;99026.09;;;5.80;58.51
77110;BME280;66062;52.464;16.922;2023-02-24T13:55:44;99011.69;;;5.92;59.03
77110;BME280;66062;52.464;16.922;2023-02-24T14:01:14;99003.22;;;5.79;58.91
77110;BME280;66062;52.464;16.922;2023-02-24T14:03:44;98991.41;;;5.56;58.75
77110;BME280;66062;52.464;16.922;2023-02-24T14:06:22;98999.84;;;5.42;59.87
77110;BME280;66062;52.464;16.922;2023-02-24T14:08:52;98987.84;;;5.47;60.31
77110;BME280;66062;52.464;16.922;2023-02-24T14:11:23;98990.63;;;5.46;59.92
77110;BME280;66062;52.464;16.922;2023-02-24T14:13:53;98985.88;;;5.49;59.74
77110;BME280;66062;52.464;16.922;2023-02-24T14:16:26;98985.09;;;5.39;60.12
77110;BME280;66062;52.464;16.922;2023-02-24T14:18:55;98977.94;;;5.22;60.65
77110;BME280;66062;52.464;16.922;2023-02-24T14:21:25;98972.78;;;5.21;60.58
77110;BME280;66062;52.464;16.922;2023-02-24T14:24:11;98975.69;;;5.27;61.23
77110;BME280;66062;52.464;16.922;2023-02-24T14:27:13;98971.81;;;5.22;61.84
77110;BME280;66062;52.464;16.922;2023-02-24T14:29:28;98967.94;;;5.16;60.40
77110;BME280;66062;52.464;16.922;2023-02-24T14:31:56;98965.00;;;5.19;59.85
77110;BME280;66062;52.464;16.922;2023-02-24T14:34:25;98959.63;;;5.11;60.29
77110;BME280;66062;52.464;16.922;2023-02-24T14:36:54;98959.22;;;5.06;60.86
77110;BME280;66062;52.464;16.922;2023-02-24T14:39:28;98959.44;;;4.85;62.37
77110;BME280;66062;52.464;16.922;2023-02-24T14:44:32;98951.50;;;4.85;62.28
77110;BME280;66062;52.464;16.922;2023-02-24T14:47:02;98945.75;;;4.99;61.80
77110;BME280;66062;52.464;16.922;2023-02-24T14:49:31;98946.31;;;4.93;62.33
77110;BME280;66062;52.464;16.922;2023-02-24T14:52:40;98941.91;;;4.84;63.45
77110;BME280;66062;52.464;16.922;2023-02-24T14:55:17;98938.38;;;4.93;63.14
77110;BME280;66062;52.464;16.922;2023-02-24T15:00:35;98936.19;;;4.89;63.28
77110;BME280;66062;52.464;16.922;2023-02-24T15:03:17;98926.63;;;4.78;63.35
77110;BME280;66062;52.464;16.922;2023-02-24T15:05:49;98922.00;;;4.90;63.70
77110;BME280;66062;52.464;16.922;2023-02-24T15:08:32;98919.13;;;4.73;64.17
77110;BME280;66062;52.464;16.922;2023-02-24T15:10:59;98918.13;;;4.84;63.46
77110;BME280;66062;52.464;16.922;2023-02-24T15:14:03;98908.63;;;4.91;63.46
77110;BME280;66062;52.464;16.922;2023-02-24T15:16:45;98915.03;;;4.89;64.33
77110;BME280;66062;52.464;16.922;2023-02-24T15:19:24;98916.31;;;4.85;64.11
77110;BME280;66062;52.464;16.922;2023-02-24T15:21:51;98903.56;;;4.70;64.71
77110;BME280;66062;52.464;16.922;2023-02-24T15:24:19;98895.25;;;4.65;64.91
77110;BME280;66062;52.464;16.922;2023-02-24T15:26:54;98893.03;;;4.61;66.08